sensor_id;sensor_type;location;lat;lon;timestamp;temperature;humidity
4896;DHT22;2463;49.948;8.472;2023-07-20T00:00:04;21.70;94.70
4896;DHT22;2463;49.948;8.472;2023-07-20T00:02:31;21.70;94.80
4896;DHT22;2463;49.948;8.472;2023-07-20T00:04:58;21.50;95.00
4896;DHT22;2463;49.948;8.472;2023-07-20T00:07:25;21.60;95.10
4896;DHT22;2463;49.948;8.472;2023-07-20T00:09:52;21.50;95.10
4896;DHT22;2463;49.948;8.472;2023-07-20T00:12:18;21.50;95.40
4896;DHT22;2463;49.948;8.472;2023-07-20T00:14:45;21.40;95.40
4896;DHT22;2463;49.948;8.472;2023-07-20T00:17:12;21.40;95.30
4896;DHT22;2463;49.948;8.472;2023-07-20T00:19:38;21.30;95.50
4896;DHT22;2463;49.948;8.472;2023-07-20T00:22:05;21.30;95.70
4896;DHT22;2463;49.948;8.472;2023-07-20T00:24:32;21.20;95.60
4896;DHT22;2463;49.948;8.472;2023-07-20T00:26:59;21.10;95.70
4896;DHT22;2463;49.948;8.472;2023-07-20T00:29:27;21.00;95.90
4896;DHT22;2463;49.948;8.472;2023-07-20T00:31:54;20.80;96.00
4896;DHT22;2463;49.948;8.472;2023-07-20T00:34:21;20.80;96.40
4896;DHT22;2463;49.948;8.472;2023-07-20T00:36:47;20.70;96.80
4896;DHT22;2463;49.948;8.472;2023-07-20T00:39:15;20.60;97.00
4896;DHT22;2463;49.948;8.472;2023-07-20T00:41:42;20.40;97.00
4896;DHT22;2463;49.948;8.472;2023-07-20T00:44:09;20.30;97.50
4896;DHT22;2463;49.948;8.472;2023-07-20T00:46:36;20.20;97.50
4896;DHT22;2463;49.948;8.472;2023-07-20T00:49:02;20.10;97.80
4896;DHT22;2463;49.948;8.472;2023-07-20T00:51:30;20.10;98.80
4896;DHT22;2463;49.948;8.472;2023-07-20T00:53:57;20.00;99.90
4896;DHT22;2463;49.948;8.472;2023-07-20T00:56:24;19.90;99.90
4896;DHT22;2463;49.948;8.472;2023-07-20T00:58:52;19.80;99.90
4896;DHT22;2463;49.948;8.472;2023-07-20T01:01:19;19.70;99.90
4896;DHT22;2463;49.948;8.472;2023-07-20T01:03:46;19.60;99.90
4896;DHT22;2463;49.948;8.472;2023-07-20T01:06:16;19.50;99.90
4896;DHT22;2463;49.948;8.472;2023-07-20T01:11:36;19.20;99.90
4896;DHT22;2463;49.948;8.472;2023-07-20T01:14:04;19.10;99.90
4896;DHT22;2463;49.948;8.472;2023-07-20T01:16:33;20.10;99.90
4896;DHT22;2463;49.948;8.472;2023-07-20T01:19:00;19.00;99.90
4896;DHT22;2463;49.948;8.472;2023-07-20T01:32:57;18.70;99.90
4896;DHT22;2463;49.948;8.472;2023-07-20T01:35:28;18.60;99.90
4896;DHT22;2463;49.948;8.472;2023-07-20T01:37:56;18.60;99.90
4896;DHT22;2463;49.948;8.472;2023-07-20T01:40:25;18.60;99.90
4896;DHT22;2463;49.948;8.472;2023-07-20T01:42:53;18.50;99.90
4896;DHT22;2463;49.948;8.472;2023-07-20T01:45:20;18.50;99.90
4896;DHT22;2463;49.948;8.472;2023-07-20T01:47:46;18.50;99.90
4896;DHT22;2463;49.948;8.472;2023-07-20T01:50:13;18.50;99.90
4896;DHT22;2463;49.948;8.472;2023-07-20T01:52:40;18.50;99.90
4896;DHT22;2463;49.948;8.472;2023-07-20T01:55:07;18.40;99.90
4896;DHT22;2463;49.948;8.472;2023-07-20T01:57:34;18.40;99.90
4896;DHT22;2463;49.948;8.472;2023-07-20T02:00:01;18.40;99.90
4896;DHT22;2463;49.948;8.472;2023-07-20T02:02:28;18.40;99.90
4896;DHT22;2463;49.948;8.472;2023-07-20T02:04:55;18.40;99.90
4896;DHT22;2463;49.948;8.472;2023-07-20T02:07:22;18.40;99.90
4896;DHT22;2463;49.948;8.472;2023-07-20T02:09:48;18.30;99.90
4896;DHT22;2463;49.948;8.472;2023-07-20T02:12:15;18.30;99.90
4896;DHT22;2463;49.948;8.472;2023-07-20T02:14:42;18.40;99.90
4896;DHT22;2463;49.948;8.472;2023-07-20T02:17:08;18.30;99.90
4896;DHT22;2463;49.948;8.472;2023-07-20T02:19:37;18.30;99.90
4896;DHT22;2463;49.948;8.472;2023-07-20T02:22:05;18.30;99.90
4896;DHT22;2463;49.948;8.472;2023-07-20T02:24:33;18.20;99.90
4896;DHT22;2463;49.948;8.472;2023-07-20T02:27:00;18.20;99.90
4896;DHT22;2463;49.948;8.472;2023-07-20T02:29:27;18.20;99.90
4896;DHT22;2463;49.948;8.472;2023-07-20T02:31:54;18.10;99.90
4896;DHT22;2463;49.948;8.472;2023-07-20T02:34:21;18.10;99.90
4896;DHT22;2463;49.948;8.472;2023-07-20T02:36:47;18.10;99.90
4896;DHT22;2463;49.948;8.472;2023-07-20T02:39:14;18.00;99.90
4896;DHT22;2463;49.948;8.472;2023-07-20T02:41:41;18.00;99.90
4896;DHT22;2463;49.948;8.472;2023-07-20T02:44:08;17.90;99.90
4896;DHT22;2463;49.948;8.472;2023-07-20T02:46:35;17.80;99.90
4896;DHT22;2463;49.948;8.472;2023-07-20T02:49:02;18.00;99.90
4896;DHT22;2463;49.948;8.472;2023-07-20T02:51:28;17.80;99.90
4896;DHT22;2463;49.948;8.472;2023-07-20T02:53:55;17.80;99.90
4896;DHT22;2463;49.948;8.472;2023-07-20T02:56:22;17.70;99.90
4896;DHT22;2463;49.948;8.472;2023-07-20T02:58:50;17.60;99.90
4896;DHT22;2463;49.948;8.472;2023-07-20T03:01:18;17.50;99.90
4896;DHT22;2463;49.948;8.472;2023-07-20T03:03:45;17.40;99.90
4896;DHT22;2463;49.948;8.472;2023-07-20T03:06:14;17.20;99.90
4896;DHT22;2463;49.948;8.472;2023-07-20T03:08:42;17.10;99.90
4896;DHT22;2463;49.948;8.472;2023-07-20T03:11:14;17.00;99.90
4896;DHT22;2463;49.948;8.472;2023-07-20T03:13:42;16.90;99.90
4896;DHT22;2463;49.948;8.472;2023-07-20T03:16:09;16.90;99.90
4896;DHT22;2463;49.948;8.472;2023-07-20T03:18:41;16.80;99.90
4896;DHT22;2463;49.948;8.472;2023-07-20T03:21:09;16.70;99.90
4896;DHT22;2463;49.948;8.472;2023-07-20T03:23:41;16.60;99.90
4896;DHT22;2463;49.948;8.472;2023-07-20T03:26:08;16.50;99.90
4896;DHT22;2463;49.948;8.472;2023-07-20T03:28:36;16.50;99.90
4896;DHT22;2463;49.948;8.472;2023-07-20T03:31:03;16.50;99.90
4896;DHT22;2463;49.948;8.472;2023-07-20T03:33:30;16.40;99.90
4896;DHT22;2463;49.948;8.472;2023-07-20T03:35:57;16.40;99.90
4896;DHT22;2463;49.948;8.472;2023-07-20T03:38:25;16.40;99.90
4896;DHT22;2463;49.948;8.472;2023-07-20T03:40:54;16.30;99.90
4896;DHT22;2463;49.948;8.472;2023-07-20T03:43:22;16.30;99.90
4896;DHT22;2463;49.948;8.472;2023-07-20T03:45:49;16.30;99.90
4896;DHT22;2463;49.948;8.472;2023-07-20T03:48:17;16.30;99.90
4896;DHT22;2463;49.948;8.472;2023-07-20T03:50:45;16.30;99.90
4896;DHT22;2463;49.948;8.472;2023-07-20T03:53:12;16.40;99.90
4896;DHT22;2463;49.948;8.472;2023-07-20T03:55:50;16.30;99.90
4896;DHT22;2463;49.948;8.472;2023-07-20T03:58:18;16.20;99.90
4896;DHT22;2463;49.948;8.472;2023-07-20T04:00:46;16.20;99.90
4896;DHT22;2463;49.948;8.472;2023-07-20T04:03:13;16.10;99.90
4896;DHT22;2463;49.948;8.472;2023-07-20T04:05:40;16.10;99.90
4896;DHT22;2463;49.948;8.472;2023-07-20T04:08:07;16.10;99.90
4896;DHT22;2463;49.948;8.472;2023-07-20T04:10:34;16.10;99.90
4896;DHT22;2463;49.948;8.472;2023-07-20T04:13:01;16.10;99.90
4896;DHT22;2463;49.948;8.472;2023-07-20T04:15:28;16.20;99.90
4896;DHT22;2463;49.948;8.472;2023-07-20T04:17:55;16.20;99.90
4896;DHT22;2463;49.948;8.472;2023-07-20T04:20:23;16.20;99.90
4896;DHT22;2463;49.948;8.472;2023-07-20T04:22:50;16.20;99.90
4896;DHT22;2463;49.948;8.472;2023-07-20T04:25:20;16.20;99.90
4896;DHT22;2463;49.948;8.472;2023-07-20T04:27:47;16.20;99.90
4896;DHT22;2463;49.948;8.472;2023-07-20T04:30:16;16.20;99.90
4896;DHT22;2463;49.948;8.472;2023-07-20T04:32:43;16.20;99.90
4896;DHT22;2463;49.948;8.472;2023-07-20T04:38:02;16.30;99.90
4896;DHT22;2463;49.948;8.472;2023-07-20T04:40:29;16.40;99.90
4896;DHT22;2463;49.948;8.472;2023-07-20T04:42:55;16.30;99.90
4896;DHT22;2463;49.948;8.472;2023-07-20T04:45:22;16.40;99.90
4896;DHT22;2463;49.948;8.472;2023-07-20T04:47:51;16.40;99.90
4896;DHT22;2463;49.948;8.472;2023-07-20T04:50:18;16.50;99.90
4896;DHT22;2463;49.948;8.472;2023-07-20T04:52:45;16.50;99.90
4896;DHT22;2463;49.948;8.472;2023-07-20T04:55:13;16.50;99.90
4896;DHT22;2463;49.948;8.472;2023-07-20T04:57:39;16.60;99.90
4896;DHT22;2463;49.948;8.472;2023-07-20T05:00:06;16.60;99.90
4896;DHT22;2463;49.948;8.472;2023-07-20T05:02:33;16.60;99.90
4896;DHT22;2463;49.948;8.472;2023-07-20T05:05:00;16.70;99.90
4896;DHT22;2463;49.948;8.472;2023-07-20T05:07:27;16.70;99.90
4896;DHT22;2463;49.948;8.472;2023-07-20T05:09:54;16.70;99.90
4896;DHT22;2463;49.948;8.472;2023-07-20T05:12:21;16.70;99.90
4896;DHT22;2463;49.948;8.472;2023-07-20T05:14:47;16.80;99.90
4896;DHT22;2463;49.948;8.472;2023-07-20T05:17:14;16.90;99.90
4896;DHT22;2463;49.948;8.472;2023-07-20T05:19:41;16.90;99.90
4896;DHT22;2463;49.948;8.472;2023-07-20T05:22:13;17.00;99.90
4896;DHT22;2463;49.948;8.472;2023-07-20T05:24:39;17.10;99.90
4896;DHT22;2463;49.948;8.472;2023-07-20T05:27:06;17.20;99.90
4896;DHT22;2463;49.948;8.472;2023-07-20T05:29:33;17.30;99.90
4896;DHT22;2463;49.948;8.472;2023-07-20T05:32:00;17.40;99.90
4896;DHT22;2463;49.948;8.472;2023-07-20T05:34:26;17.40;99.90
4896;DHT22;2463;49.948;8.472;2023-07-20T05:36:53;17.50;99.90
4896;DHT22;2463;49.948;8.472;2023-07-20T05:39:20;17.60;99.90
4896;DHT22;2463;49.948;8.472;2023-07-20T05:41:47;17.70;99.90
4896;DHT22;2463;49.948;8.472;2023-07-20T05:44:13;17.70;99.90
4896;DHT22;2463;49.948;8.472;2023-07-20T05:46:40;17.80;99.90
4896;DHT22;2463;49.948;8.472;2023-07-20T05:49:22;17.90;99.90
4896;DHT22;2463;49.948;8.472;2023-07-20T05:51:49;18.00;99.90
4896;DHT22;2463;49.948;8.472;2023-07-20T05:54:16;18.00;99.90
4896;DHT22;2463;49.948;8.472;2023-07-20T05:56:43;18.10;99.90
4896;DHT22;2463;49.948;8.472;2023-07-20T05:59:09;18.10;99.90
4896;DHT22;2463;49.948;8.472;2023-07-20T06:01:36;18.20;99.90
4896;DHT22;2463;49.948;8.472;2023-07-20T06:04:03;18.20;99.90
4896;DHT22;2463;49.948;8.472;2023-07-20T06:06:30;18.40;99.90
4896;DHT22;2463;49.948;8.472;2023-07-20T06:08:57;18.50;99.90
4896;DHT22;2463;49.948;8.472;2023-07-20T06:11:24;18.60;99.90
4896;DHT22;2463;49.948;8.472;2023-07-20T06:13:51;18.80;99.90
4896;DHT22;2463;49.948;8.472;2023-07-20T06:16:17;18.90;99.90
4896;DHT22;2463;49.948;8.472;2023-07-20T06:18:44;19.20;99.90
4896;DHT22;2463;49.948;8.472;2023-07-20T06:21:12;19.40;99.90
4896;DHT22;2463;49.948;8.472;2023-07-20T06:23:39;19.60;99.90
4896;DHT22;2463;49.948;8.472;2023-07-20T06:26:06;19.90;99.90
4896;DHT22;2463;49.948;8.472;2023-07-20T06:28:33;20.10;99.90
4896;DHT22;2463;49.948;8.472;2023-07-20T06:31:01;20.40;99.90
4896;DHT22;2463;49.948;8.472;2023-07-20T06:33:29;20.90;99.90
4896;DHT22;2463;49.948;8.472;2023-07-20T06:35:56;21.60;99.90
4896;DHT22;2463;49.948;8.472;2023-07-20T06:38:23;22.20;99.90
4896;DHT22;2463;49.948;8.472;2023-07-20T06:40:53;22.50;99.90
4896;DHT22;2463;49.948;8.472;2023-07-20T06:43:19;22.90;99.90
4896;DHT22;2463;49.948;8.472;2023-07-20T06:45:51;22.80;99.90
4896;DHT22;2463;49.948;8.472;2023-07-20T06:48:21;22.90;99.90
4896;DHT22;2463;49.948;8.472;2023-07-20T06:50:48;22.90;99.90
4896;DHT22;2463;49.948;8.472;2023-07-20T06:53:14;23.00;99.90
4896;DHT22;2463;49.948;8.472;2023-07-20T06:55:44;23.10;99.90
4896;DHT22;2463;49.948;8.472;2023-07-20T06:58:16;23.40;99.90
4896;DHT22;2463;49.948;8.472;2023-07-20T07:00:43;24.60;99.90
4896;DHT22;2463;49.948;8.472;2023-07-20T07:03:10;26.30;99.90
4896;DHT22;2463;49.948;8.472;2023-07-20T07:05:37;28.00;99.90
4896;DHT22;2463;49.948;8.472;2023-07-20T07:08:05;29.40;99.90
4896;DHT22;2463;49.948;8.472;2023-07-20T07:10:35;30.80;97.80
4896;DHT22;2463;49.948;8.472;2023-07-20T07:13:03;32.10;94.60
4896;DHT22;2463;49.948;8.472;2023-07-20T07:15:31;33.00;92.30
4896;DHT22;2463;49.948;8.472;2023-07-20T07:17:59;33.10;90.50
4896;DHT22;2463;49.948;8.472;2023-07-20T07:20:26;32.90;90.10
4896;DHT22;2463;49.948;8.472;2023-07-20T07:22:52;32.60;86.20
4896;DHT22;2463;49.948;8.472;2023-07-20T07:25:20;32.10;87.20
4896;DHT22;2463;49.948;8.472;2023-07-20T07:27:49;31.60;89.10
4896;DHT22;2463;49.948;8.472;2023-07-20T07:30:16;31.30;89.70
4896;DHT22;2463;49.948;8.472;2023-07-20T07:32:43;31.10;90.10
4896;DHT22;2463;49.948;8.472;2023-07-20T07:35:10;30.80;90.80
4896;DHT22;2463;49.948;8.472;2023-07-20T07:37:38;30.50;90.10
4896;DHT22;2463;49.948;8.472;2023-07-20T07:40:23;30.30;89.80
4896;DHT22;2463;49.948;8.472;2023-07-20T07:42:49;30.10;88.50
4896;DHT22;2463;49.948;8.472;2023-07-20T07:45:16;29.60;88.60
4896;DHT22;2463;49.948;8.472;2023-07-20T07:47:43;29.40;90.10
4896;DHT22;2463;49.948;8.472;2023-07-20T07:50:10;29.30;90.50
4896;DHT22;2463;49.948;8.472;2023-07-20T07:52:37;29.20;90.50
4896;DHT22;2463;49.948;8.472;2023-07-20T07:55:04;28.90;89.50
4896;DHT22;2463;49.948;8.472;2023-07-20T07:57:31;28.70;90.50
4896;DHT22;2463;49.948;8.472;2023-07-20T07:59:58;28.50;92.10
4896;DHT22;2463;49.948;8.472;2023-07-20T08:02:25;28.40;91.50
4896;DHT22;2463;49.948;8.472;2023-07-20T08:04:51;28.40;90.80
4896;DHT22;2463;49.948;8.472;2023-07-20T08:07:19;28.00;91.30
4896;DHT22;2463;49.948;8.472;2023-07-20T08:09:45;27.50;90.80
4896;DHT22;2463;49.948;8.472;2023-07-20T08:12:12;27.20;92.20
4896;DHT22;2463;49.948;8.472;2023-07-20T08:14:40;27.20;92.20
4896;DHT22;2463;49.948;8.472;2023-07-20T08:17:06;27.00;91.00
4896;DHT22;2463;49.948;8.472;2023-07-20T08:19:33;26.60;91.00
4896;DHT22;2463;49.948;8.472;2023-07-20T08:22:02;26.40;92.60
4896;DHT22;2463;49.948;8.472;2023-07-20T08:24:29;26.30;92.60
4896;DHT22;2463;49.948;8.472;2023-07-20T08:26:56;26.40;92.50
4896;DHT22;2463;49.948;8.472;2023-07-20T08:29:23;26.30;94.00
4896;DHT22;2463;49.948;8.472;2023-07-20T08:31:50;26.40;93.30
4896;DHT22;2463;49.948;8.472;2023-07-20T08:34:17;26.40;94.50
4896;DHT22;2463;49.948;8.472;2023-07-20T08:36:58;26.60;95.50
4896;DHT22;2463;49.948;8.472;2023-07-20T08:39:25;27.00;96.00
4896;DHT22;2463;49.948;8.472;2023-07-20T08:41:51;27.50;95.30
4896;DHT22;2463;49.948;8.472;2023-07-20T08:44:19;28.00;94.60
4896;DHT22;2463;49.948;8.472;2023-07-20T08:46:48;28.40;92.90
4896;DHT22;2463;49.948;8.472;2023-07-20T08:49:17;28.60;92.50
4896;DHT22;2463;49.948;8.472;2023-07-20T08:51:46;28.70;90.90
4896;DHT22;2463;49.948;8.472;2023-07-20T08:54:14;28.60;90.50
4896;DHT22;2463;49.948;8.472;2023-07-20T08:56:42;28.30;90.90
4896;DHT22;2463;49.948;8.472;2023-07-20T08:59:13;28.00;91.10
4896;DHT22;2463;49.948;8.472;2023-07-20T09:01:44;28.00;90.80
4896;DHT22;2463;49.948;8.472;2023-07-20T09:04:12;27.80;90.50
4896;DHT22;2463;49.948;8.472;2023-07-20T09:06:39;27.60;90.70
4896;DHT22;2463;49.948;8.472;2023-07-20T09:09:11;27.50;91.70
4896;DHT22;2463;49.948;8.472;2023-07-20T09:11:38;27.60;92.10
4896;DHT22;2463;49.948;8.472;2023-07-20T09:14:09;27.50;91.90
4896;DHT22;2463;49.948;8.472;2023-07-20T09:19:16;28.00;90.30
4896;DHT22;2463;49.948;8.472;2023-07-20T09:21:51;28.20;90.30
4896;DHT22;2463;49.948;8.472;2023-07-20T09:24:19;28.20;90.80
4896;DHT22;2463;49.948;8.472;2023-07-20T09:26:47;28.20;91.10
4896;DHT22;2463;49.948;8.472;2023-07-20T09:29:20;28.00;90.30
4896;DHT22;2463;49.948;8.472;2023-07-20T09:32:03;27.80;91.20
4896;DHT22;2463;49.948;8.472;2023-07-20T09:34:31;27.70;91.50
4896;DHT22;2463;49.948;8.472;2023-07-20T09:37:01;27.70;90.70
4896;DHT22;2463;49.948;8.472;2023-07-20T09:39:29;27.80;91.90
4896;DHT22;2463;49.948;8.472;2023-07-20T09:42:00;28.10;91.20
4896;DHT22;2463;49.948;8.472;2023-07-20T09:44:30;28.30;90.10
4896;DHT22;2463;49.948;8.472;2023-07-20T09:47:03;28.50;89.30
4896;DHT22;2463;49.948;8.472;2023-07-20T09:49:31;28.80;88.70
4896;DHT22;2463;49.948;8.472;2023-07-20T09:52:18;28.90;89.60
4896;DHT22;2463;49.948;8.472;2023-07-20T09:54:49;29.30;90.40
4896;DHT22;2463;49.948;8.472;2023-07-20T09:57:16;29.50;89.10
4896;DHT22;2463;49.948;8.472;2023-07-20T09:59:43;29.90;86.60
4896;DHT22;2463;49.948;8.472;2023-07-20T10:02:20;29.90;85.90
4896;DHT22;2463;49.948;8.472;2023-07-20T10:04:52;30.00;86.60
4896;DHT22;2463;49.948;8.472;2023-07-20T10:07:22;30.10;82.70
4896;DHT22;2463;49.948;8.472;2023-07-20T10:09:51;29.90;82.80
4896;DHT22;2463;49.948;8.472;2023-07-20T10:12:22;29.50;84.00
4896;DHT22;2463;49.948;8.472;2023-07-20T10:15:05;29.20;85.50
4896;DHT22;2463;49.948;8.472;2023-07-20T10:17:33;29.00;83.80
4896;DHT22;2463;49.948;8.472;2023-07-20T10:20:00;28.70;85.50
4896;DHT22;2463;49.948;8.472;2023-07-20T10:22:31;28.50;85.40
4896;DHT22;2463;49.948;8.472;2023-07-20T10:25:07;28.20;85.70
4896;DHT22;2463;49.948;8.472;2023-07-20T10:27:35;27.90;85.40
4896;DHT22;2463;49.948;8.472;2023-07-20T10:30:02;27.50;85.50
4896;DHT22;2463;49.948;8.472;2023-07-20T10:32:31;27.40;85.60
4896;DHT22;2463;49.948;8.472;2023-07-20T10:34:58;27.20;87.40
4896;DHT22;2463;49.948;8.472;2023-07-20T10:37:50;27.00;88.70
4896;DHT22;2463;49.948;8.472;2023-07-20T10:40:32;27.00;87.90
4896;DHT22;2463;49.948;8.472;2023-07-20T10:43:08;26.80;88.40
4896;DHT22;2463;49.948;8.472;2023-07-20T10:45:53;26.70;90.20
4896;DHT22;2463;49.948;8.472;2023-07-20T10:48:24;26.70;89.80
4896;DHT22;2463;49.948;8.472;2023-07-20T10:51:14;26.60;90.10
4896;DHT22;2463;49.948;8.472;2023-07-20T10:53:48;26.60;90.80
4896;DHT22;2463;49.948;8.472;2023-07-20T10:56:36;26.90;91.00
4896;DHT22;2463;49.948;8.472;2023-07-20T10:59:18;27.20;90.40
4896;DHT22;2463;49.948;8.472;2023-07-20T11:01:47;27.50;90.20
4896;DHT22;2463;49.948;8.472;2023-07-20T11:04:16;27.80;90.50
4896;DHT22;2463;49.948;8.472;2023-07-20T11:06:45;27.90;88.60
4896;DHT22;2463;49.948;8.472;2023-07-20T11:09:13;28.20;90.60
4896;DHT22;2463;49.948;8.472;2023-07-20T11:11:47;28.50;89.10
4896;DHT22;2463;49.948;8.472;2023-07-20T11:16:49;28.70;88.00
4896;DHT22;2463;49.948;8.472;2023-07-20T11:19:25;28.70;86.80
4896;DHT22;2463;49.948;8.472;2023-07-20T11:21:58;28.70;89.40
4896;DHT22;2463;49.948;8.472;2023-07-20T11:24:30;28.80;90.00
4896;DHT22;2463;49.948;8.472;2023-07-20T11:26:57;28.80;88.40
4896;DHT22;2463;49.948;8.472;2023-07-20T11:29:24;28.80;88.90
4896;DHT22;2463;49.948;8.472;2023-07-20T11:32:00;29.00;86.00
4896;DHT22;2463;49.948;8.472;2023-07-20T11:34:30;29.20;86.40
4896;DHT22;2463;49.948;8.472;2023-07-20T11:36:57;29.50;85.70
4896;DHT22;2463;49.948;8.472;2023-07-20T11:39:28;29.50;85.20
4896;DHT22;2463;49.948;8.472;2023-07-20T11:41:56;29.50;87.80
4896;DHT22;2463;49.948;8.472;2023-07-20T11:44:26;29.40;86.40
4896;DHT22;2463;49.948;8.472;2023-07-20T11:47:11;29.30;86.20
4896;DHT22;2463;49.948;8.472;2023-07-20T11:49:42;29.30;88.40
4896;DHT22;2463;49.948;8.472;2023-07-20T11:52:14;29.50;88.00
4896;DHT22;2463;49.948;8.472;2023-07-20T11:54:43;29.50;87.30
4896;DHT22;2463;49.948;8.472;2023-07-20T11:57:21;29.20;86.60
4896;DHT22;2463;49.948;8.472;2023-07-20T11:59:58;29.10;88.90
4896;DHT22;2463;49.948;8.472;2023-07-20T12:02:30;29.20;89.30
4896;DHT22;2463;49.948;8.472;2023-07-20T12:04:57;29.10;88.40
4896;DHT22;2463;49.948;8.472;2023-07-20T12:07:27;29.00;85.10
4896;DHT22;2463;49.948;8.472;2023-07-20T12:10:07;28.80;85.90
4896;DHT22;2463;49.948;8.472;2023-07-20T12:12:37;28.80;85.90
4896;DHT22;2463;49.948;8.472;2023-07-20T12:15:17;28.70;86.10
4896;DHT22;2463;49.948;8.472;2023-07-20T12:17:49;28.90;89.70
4896;DHT22;2463;49.948;8.472;2023-07-20T12:20:33;29.20;89.00
4896;DHT22;2463;49.948;8.472;2023-07-20T12:23:10;29.60;87.90
4896;DHT22;2463;49.948;8.472;2023-07-20T12:25:43;29.80;86.00
4896;DHT22;2463;49.948;8.472;2023-07-20T12:28:12;30.10;87.20
4896;DHT22;2463;49.948;8.472;2023-07-20T12:30:40;30.40;84.10
4896;DHT22;2463;49.948;8.472;2023-07-20T12:33:07;30.70;84.80
4896;DHT22;2463;49.948;8.472;2023-07-20T12:35:34;31.10;80.30
4896;DHT22;2463;49.948;8.472;2023-07-20T12:38:01;31.10;77.40
4896;DHT22;2463;49.948;8.472;2023-07-20T12:40:28;31.00;80.30
4896;DHT22;2463;49.948;8.472;2023-07-20T12:42:55;30.80;82.30
4896;DHT22;2463;49.948;8.472;2023-07-20T12:45:22;30.70;82.90
4896;DHT22;2463;49.948;8.472;2023-07-20T12:47:49;30.60;84.20
4896;DHT22;2463;49.948;8.472;2023-07-20T12:50:16;30.40;78.00
4896;DHT22;2463;49.948;8.472;2023-07-20T12:52:43;30.30;79.20
4896;DHT22;2463;49.948;8.472;2023-07-20T12:55:10;30.30;77.70
4896;DHT22;2463;49.948;8.472;2023-07-20T12:57:37;30.40;76.60
4896;DHT22;2463;49.948;8.472;2023-07-20T13:00:05;30.60;76.40
4896;DHT22;2463;49.948;8.472;2023-07-20T13:02:34;30.40;76.80
4896;DHT22;2463;49.948;8.472;2023-07-20T13:05:02;30.20;74.70
4896;DHT22;2463;49.948;8.472;2023-07-20T13:07:34;30.10;78.30
4896;DHT22;2463;49.948;8.472;2023-07-20T13:10:05;29.90;76.90
4896;DHT22;2463;49.948;8.472;2023-07-20T13:12:33;29.70;76.70
4896;DHT22;2463;49.948;8.472;2023-07-20T13:15:02;29.60;76.50
4896;DHT22;2463;49.948;8.472;2023-07-20T13:17:32;29.50;76.80
4896;DHT22;2463;49.948;8.472;2023-07-20T13:19:59;29.40;78.20
4896;DHT22;2463;49.948;8.472;2023-07-20T13:22:26;29.50;78.00
4896;DHT22;2463;49.948;8.472;2023-07-20T13:24:53;29.70;80.40
4896;DHT22;2463;49.948;8.472;2023-07-20T13:27:20;30.00;79.60
4896;DHT22;2463;49.948;8.472;2023-07-20T13:29:48;30.30;73.20
4896;DHT22;2463;49.948;8.472;2023-07-20T13:32:15;30.10;72.30
4896;DHT22;2463;49.948;8.472;2023-07-20T13:34:43;29.80;73.30
4896;DHT22;2463;49.948;8.472;2023-07-20T13:37:14;29.50;73.80
4896;DHT22;2463;49.948;8.472;2023-07-20T13:39:42;29.30;75.50
4896;DHT22;2463;49.948;8.472;2023-07-20T13:42:10;29.40;80.00
4896;DHT22;2463;49.948;8.472;2023-07-20T13:44:38;29.80;76.00
4896;DHT22;2463;49.948;8.472;2023-07-20T13:47:05;29.70;74.70
4896;DHT22;2463;49.948;8.472;2023-07-20T13:49:35;29.70;76.40
4896;DHT22;2463;49.948;8.472;2023-07-20T13:52:12;29.20;73.60
4896;DHT22;2463;49.948;8.472;2023-07-20T13:54:42;28.90;74.40
4896;DHT22;2463;49.948;8.472;2023-07-20T13:57:11;28.90;78.50
4896;DHT22;2463;49.948;8.472;2023-07-20T13:59:38;29.10;77.80
4896;DHT22;2463;49.948;8.472;2023-07-20T14:02:05;29.30;78.10
4896;DHT22;2463;49.948;8.472;2023-07-20T14:04:35;29.40;75.20
4896;DHT22;2463;49.948;8.472;2023-07-20T14:07:02;29.40;76.40
4896;DHT22;2463;49.948;8.472;2023-07-20T14:09:29;29.40;75.70
4896;DHT22;2463;49.948;8.472;2023-07-20T14:11:56;29.50;74.10
4896;DHT22;2463;49.948;8.472;2023-07-20T14:14:25;29.70;75.30
4896;DHT22;2463;49.948;8.472;2023-07-20T14:16:52;29.70;73.90
4896;DHT22;2463;49.948;8.472;2023-07-20T14:19:19;29.70;74.30
4896;DHT22;2463;49.948;8.472;2023-07-20T14:21:46;29.80;77.10
4896;DHT22;2463;49.948;8.472;2023-07-20T14:24:13;30.10;76.30
4896;DHT22;2463;49.948;8.472;2023-07-20T14:26:40;30.20;71.90
4896;DHT22;2463;49.948;8.472;2023-07-20T14:29:09;30.10;71.40
4896;DHT22;2463;49.948;8.472;2023-07-20T14:31:36;29.80;72.80
4896;DHT22;2463;49.948;8.472;2023-07-20T14:34:04;29.60;71.10
4896;DHT22;2463;49.948;8.472;2023-07-20T14:36:31;29.50;71.60
4896;DHT22;2463;49.948;8.472;2023-07-20T14:39:00;29.40;71.30
4896;DHT22;2463;49.948;8.472;2023-07-20T14:41:27;29.30;73.30
4896;DHT22;2463;49.948;8.472;2023-07-20T14:43:54;29.30;74.70
4896;DHT22;2463;49.948;8.472;2023-07-20T14:46:21;29.30;73.40
4896;DHT22;2463;49.948;8.472;2023-07-20T14:48:47;29.00;74.40
4896;DHT22;2463;49.948;8.472;2023-07-20T14:51:14;29.00;75.20
4896;DHT22;2463;49.948;8.472;2023-07-20T14:53:41;28.70;72.50
4896;DHT22;2463;49.948;8.472;2023-07-20T14:56:08;28.40;71.80
4896;DHT22;2463;49.948;8.472;2023-07-20T14:58:35;28.10;72.80
4896;DHT22;2463;49.948;8.472;2023-07-20T15:01:03;28.00;73.80
4896;DHT22;2463;49.948;8.472;2023-07-20T15:03:31;27.90;73.30
4896;DHT22;2463;49.948;8.472;2023-07-20T15:05:58;27.80;76.20
4896;DHT22;2463;49.948;8.472;2023-07-20T15:08:24;27.80;79.30
4896;DHT22;2463;49.948;8.472;2023-07-20T15:10:51;27.70;79.70
4896;DHT22;2463;49.948;8.472;2023-07-20T15:13:18;27.70;78.80
4896;DHT22;2463;49.948;8.472;2023-07-20T15:15:44;27.70;78.20
4896;DHT22;2463;49.948;8.472;2023-07-20T15:18:11;27.70;80.30
4896;DHT22;2463;49.948;8.472;2023-07-20T15:20:38;27.60;77.20
4896;DHT22;2463;49.948;8.472;2023-07-20T15:23:05;27.40;76.80
4896;DHT22;2463;49.948;8.472;2023-07-20T15:25:32;27.40;77.30
4896;DHT22;2463;49.948;8.472;2023-07-20T15:27:59;27.30;78.70
4896;DHT22;2463;49.948;8.472;2023-07-20T15:30:27;27.30;79.90
4896;DHT22;2463;49.948;8.472;2023-07-20T15:32:58;27.10;79.40
4896;DHT22;2463;49.948;8.472;2023-07-20T15:35:27;27.20;80.90
4896;DHT22;2463;49.948;8.472;2023-07-20T15:37:54;27.10;81.20
4896;DHT22;2463;49.948;8.472;2023-07-20T15:40:21;27.10;78.90
4896;DHT22;2463;49.948;8.472;2023-07-20T15:42:47;26.90;77.80
4896;DHT22;2463;49.948;8.472;2023-07-20T15:45:17;26.90;78.80
4896;DHT22;2463;49.948;8.472;2023-07-20T15:47:44;26.90;78.80
4896;DHT22;2463;49.948;8.472;2023-07-20T15:50:12;27.00;81.10
4896;DHT22;2463;49.948;8.472;2023-07-20T15:52:39;27.10;82.30
4896;DHT22;2463;49.948;8.472;2023-07-20T15:55:08;27.40;81.20
4896;DHT22;2463;49.948;8.472;2023-07-20T15:57:35;27.50;78.40
4896;DHT22;2463;49.948;8.472;2023-07-20T16:00:03;27.60;80.30
4896;DHT22;2463;49.948;8.472;2023-07-20T16:02:32;27.70;80.30
4896;DHT22;2463;49.948;8.472;2023-07-20T16:05:00;27.90;79.00
4896;DHT22;2463;49.948;8.472;2023-07-20T16:07:41;28.00;81.40
4896;DHT22;2463;49.948;8.472;2023-07-20T16:10:11;28.10;81.20
4896;DHT22;2463;49.948;8.472;2023-07-20T16:12:37;28.10;81.80
4896;DHT22;2463;49.948;8.472;2023-07-20T16:15:07;28.20;81.00
4896;DHT22;2463;49.948;8.472;2023-07-20T16:17:35;28.30;80.10
4896;DHT22;2463;49.948;8.472;2023-07-20T16:20:01;28.30;78.80
4896;DHT22;2463;49.948;8.472;2023-07-20T16:22:30;28.30;80.80
4896;DHT22;2463;49.948;8.472;2023-07-20T16:24:57;28.20;77.80
4896;DHT22;2463;49.948;8.472;2023-07-20T16:27:23;28.10;78.30
4896;DHT22;2463;49.948;8.472;2023-07-20T16:29:50;28.10;79.50
4896;DHT22;2463;49.948;8.472;2023-07-20T16:32:18;28.00;79.20